Time;durP1;ratioP1;P1;durP2;ratioP2;P2;SDS_P1;SDS_P2;PMS_P1;PMS_P2;Temp;Humidity;BMP_temperature;BMP_pressure;BME280_temperature;BME280_humidity;BME280_pressure;Samples;Min_cycle;Max_cycle;Signal;HPM_P1;HPM_P2
2022/07/23 00:00:44;;;;;;;3.60;3.30;;;27.10;57.00;27.90;96519.00;;;;5098285;28;20195;-85
2022/07/23 00:03:12;;;;;;;4.03;3.73;;;27.10;56.80;27.90;96513.00;;;;5096313;28;20647;-84
2022/07/23 00:05:39;;;;;;;4.00;3.70;;;27.10;56.50;28.00;96511.00;;;;5099065;28;20196;-85
2022/07/23 00:08:09;;;;;;;4.43;3.40;;;27.10;56.30;28.00;96502.00;;;;5097526;28;20215;-85
2022/07/23 00:10:36;;;;;;;3.63;3.43;;;27.10;56.40;28.00;96506.00;;;;5099563;28;20196;-85
2022/07/23 00:13:04;;;;;;;3.40;3.20;;;27.10;56.20;28.10;96505.00;;;;5089072;28;20245;-84
2022/07/23 00:15:31;;;;;;;4.00;3.70;;;27.20;56.40;28.10;96512.00;;;;5097441;28;20615;-84
2022/07/23 00:17:58;;;;;;;4.00;3.70;;;27.20;56.30;28.10;96502.00;;;;5094204;28;20760;-84
2022/07/23 00:20:27;;;;;;;3.67;3.40;;;27.20;56.30;28.10;96506.00;;;;5099810;28;20652;-84
2022/07/23 00:22:56;;;;;;;3.93;3.63;;;27.20;56.30;28.10;96498.00;;;;5100148;28;20261;-85
2022/07/23 00:25:26;;;;;;;4.17;3.87;;;27.30;56.40;28.10;96497.00;;;;5095908;28;20214;-85
2022/07/23 00:27:53;;;;;;;3.90;3.60;;;27.30;56.30;28.10;96493.00;;;;5087772;28;20327;-85
2022/07/23 00:30:20;;;;;;;3.60;3.37;;;27.30;56.20;28.20;96502.00;;;;5093496;28;20200;-85
2022/07/23 00:32:49;;;;;;;3.97;3.77;;;27.30;56.40;28.10;96503.00;;;;5099848;28;20656;-85
2022/07/23 00:35:20;;;;;;;4.00;3.70;;;27.30;56.60;28.10;96510.00;;;;5098246;28;20199;-84
2022/07/23 00:37:48;;;;;;;3.60;3.30;;;27.30;56.70;28.10;96516.00;;;;5099171;28;20242;-84
2022/07/23 00:40:16;;;;;;;4.20;3.90;;;27.30;56.50;28.10;96512.00;;;;5100181;28;20200;-85
2022/07/23 00:42:45;;;;;;;4.00;3.70;;;27.30;56.30;28.10;96505.00;;;;5097122;28;20203;-85
2022/07/23 00:45:13;;;;;;;3.70;3.40;;;27.20;56.10;28.10;96513.00;;;;5093544;28;20249;-85
2022/07/23 00:47:40;;;;;;;4.40;4.10;;;27.20;56.00;28.00;96500.00;;;;5096343;28;20220;-85
2022/07/23 00:50:10;;;;;;;3.90;3.60;;;27.20;55.90;28.00;96503.00;;;;5100682;28;20198;-85
2022/07/23 00:52:40;;;;;;;4.00;3.70;;;27.20;55.80;28.00;96498.00;;;;5098963;28;20217;-84
2022/07/23 00:55:10;;;;;;;3.43;3.23;;;27.20;55.70;28.00;96491.00;;;;5100525;28;20241;-84
2022/07/23 00:57:38;;;;;;;3.60;3.40;;;27.20;55.70;28.00;96490.00;;;;5094342;28;20223;-85
2022/07/23 01:00:11;;;;;;;3.97;3.67;;;27.10;56.00;28.00;96488.00;;;;5098829;28;20196;-85
2022/07/23 01:02:39;;;;;;;4.17;3.87;;;27.10;56.00;27.90;96495.00;;;;5098568;28;20238;-85
2022/07/23 01:05:08;;;;;;;4.00;3.70;;;27.10;55.90;27.90;96492.00;;;;5100432;28;20199;-85
2022/07/23 01:07:37;;;;;;;3.40;3.20;;;27.10;56.00;27.90;96489.00;;;;5099129;28;20219;-84
2022/07/23 01:10:30;;;;;;;3.90;3.63;;;27.10;56.10;27.90;96489.00;;;;5100396;28;20191;-85
2022/07/23 01:12:57;;;;;;;3.87;3.57;;;27.10;56.10;27.90;96493.00;;;;5095590;28;20202;-85
2022/07/23 01:15:26;;;;;;;5.23;4.30;;;27.10;55.90;27.90;96498.00;;;;5091972;28;20219;-85
2022/07/23 01:17:53;;;;;;;4.10;3.80;;;27.00;55.90;27.90;96503.00;;;;5090202;28;20219;-85
2022/07/23 01:20:21;;;;;;;4.13;3.83;;;27.10;56.10;27.90;96519.00;;;;5092273;28;20230;-85
2022/07/23 01:22:50;;;;;;;4.57;4.17;;;27.00;56.00;27.90;96550.00;;;;5095769;28;20195;-85
2022/07/23 01:25:18;;;;;;;4.27;3.97;;;27.00;56.00;27.90;96553.00;;;;5098913;28;20669;-85
2022/07/23 01:27:45;;;;;;;4.17;3.50;;;27.00;56.00;27.90;96565.00;;;;5097054;28;20250;-84
2022/07/23 01:30:14;;;;;;;4.60;4.20;;;27.00;56.00;27.90;96578.00;;;;5098996;28;20191;-84
2022/07/23 01:32:42;;;;;;;4.47;4.07;;;27.00;56.20;27.80;96602.00;;;;5098896;28;20241;-84
2022/07/23 01:35:10;;;;;;;5.10;4.67;;;27.00;56.30;27.80;96607.00;;;;5098179;28;20249;-84
2022/07/23 01:37:38;;;;;;;5.33;4.83;;;27.00;56.20;27.80;96626.00;;;;5096931;28;20223;-85
2022/07/23 01:40:08;;;;;;;4.43;4.00;;;27.10;56.00;27.90;96624.00;;;;5098467;28;20678;-84
2022/07/23 01:42:36;;;;;;;4.20;3.80;;;27.10;55.50;27.90;96637.00;;;;5090439;28;20200;-85
2022/07/23 01:45:10;;;;;;;3.97;3.67;;;27.10;55.10;27.90;96672.00;;;;5095648;28;20232;-85
2022/07/23 01:47:37;;;;;;;3.50;3.17;;;27.10;54.50;27.90;96701.00;;;;5094142;28;20230;-85
2022/07/23 01:50:06;;;;;;;2.90;2.70;;;27.10;53.90;27.90;96699.00;;;;5098839;28;20252;-84
2022/07/23 01:52:33;;;;;;;3.17;2.83;;;27.10;53.70;27.90;96692.00;;;;5098442;28;20225;-84
2022/07/23 01:55:00;;;;;;;3.20;2.83;;;27.10;53.50;27.80;96666.00;;;;5094356;28;20191;-84
2022/07/23 01:57:29;;;;;;;5.10;3.20;;;27.10;53.20;27.80;96669.00;;;;5100813;28;20222;-85
2022/07/23 01:59:56;;;;;;;3.20;2.93;;;27.10;53.00;27.80;96676.00;;;;5097901;28;20223;-84
2022/07/23 02:02:23;;;;;;;2.90;2.70;;;27.10;52.90;27.70;96694.00;;;;5100404;28;20199;-84
2022/07/23 02:04:50;;;;;;;3.40;2.60;;;27.10;53.00;27.70;96679.00;;;;5095317;28;20213;-84
2022/07/23 02:07:18;;;;;;;2.90;2.57;;;27.00;53.00;27.70;96680.00;;;;5102742;28;20236;-84
2022/07/23 02:09:45;;;;;;;2.50;2.30;;;27.00;53.10;27.60;96671.00;;;;5102754;28;20215;-84
2022/07/23 02:12:13;;;;;;;2.70;2.43;;;27.00;53.60;27.50;96688.00;;;;5101094;28;20223;-84
2022/07/23 02:14:41;;;;;;;2.60;2.40;;;26.90;53.80;27.50;96704.00;;;;5098910;28;20577;-84
2022/07/23 02:17:09;;;;;;;2.30;2.10;;;26.80;54.30;27.40;96720.00;;;;5095580;28;20209;-84
2022/07/23 02:19:36;;;;;;;3.27;2.43;;;26.80;55.00;27.30;96740.00;;;;5103446;28;20207;-84
2022/07/23 02:22:03;;;;;;;3.17;2.87;;;26.70;55.70;27.10;96730.00;;;;5103291;28;20668;-84
2022/07/23 02:24:30;;;;;;;3.20;2.93;;;26.60;56.20;27.00;96733.00;;;;5101301;28;20199;-84
2022/07/23 02:26:58;;;;;;;4.90;2.80;;;26.50;56.80;26.80;96734.00;;;;5102912;28;20196;-84
2022/07/23 02:29:25;;;;;;;2.90;2.57;;;26.30;57.00;26.60;96748.00;;;;5101202;28;20310;-84
2022/07/23 02:31:54;;;;;;;3.90;3.27;;;26.20;57.60;26.40;96743.00;;;;5102910;28;20191;-84
2022/07/23 02:34:21;;;;;;;3.87;2.80;;;26.00;57.90;26.30;96749.00;;;;5091881;28;20196;-84
2022/07/23 02:36:48;;;;;;;2.87;2.50;;;25.80;58.20;26.10;96753.00;;;;5102254;28;20260;-84
2022/07/23 02:39:15;;;;;;;2.87;2.57;;;25.70;58.40;26.00;96744.00;;;;5102915;28;20222;-84
2022/07/23 02:41:42;;;;;;;3.03;2.70;;;25.60;58.90;25.80;96732.00;;;;5104964;28;20680;-84
2022/07/23 02:44:10;;;;;;;2.37;2.20;;;25.40;59.50;25.70;96721.00;;;;5100890;28;20205;-84
2022/07/23 02:46:37;;;;;;;3.33;2.67;;;25.20;60.20;25.60;96735.00;;;;5094248;28;20206;-84
2022/07/23 02:49:05;;;;;;;3.70;2.60;;;25.10;61.40;25.50;96733.00;;;;5102061;28;20219;-84
2022/07/23 02:51:33;;;;;;;2.83;2.60;;;24.90;62.80;25.30;96735.00;;;;5102349;28;20266;-84
2022/07/23 02:54:00;;;;;;;2.43;2.23;;;24.80;63.60;25.20;96721.00;;;;5101131;28;20206;-84
2022/07/23 02:56:27;;;;;;;2.70;2.50;;;24.70;64.50;25.20;96713.00;;;;5091997;28;20206;-84
2022/07/23 02:58:54;;;;;;;2.57;2.37;;;24.60;65.20;25.10;96721.00;;;;5101250;28;20280;-83
2022/07/23 03:01:22;;;;;;;2.53;2.33;;;24.50;66.10;25.00;96700.00;;;;5099881;28;20189;-84
2022/07/23 03:03:49;;;;;;;3.13;2.83;;;24.40;66.60;25.00;96682.00;;;;5102031;28;20230;-84
2022/07/23 03:06:18;;;;;;;3.30;2.10;;;24.30;67.00;24.90;96656.00;;;;5107102;22;20225;-84
2022/07/23 03:08:45;;;;;;;2.67;2.43;;;24.20;67.80;24.90;96635.00;;;;5054090;28;20229;-83
2022/07/23 03:11:12;;;;;;;2.60;2.13;;;24.20;68.50;24.80;96617.00;;;;5054042;28;20205;-84
2022/07/23 03:13:40;;;;;;;3.03;2.20;;;24.10;69.10;24.70;96644.00;;;;5054024;28;20196;-84
2022/07/23 03:16:08;;;;;;;2.47;2.27;;;24.00;69.70;24.60;96632.00;;;;5053984;28;20201;-84
2022/07/23 03:18:36;;;;;;;2.30;2.10;;;23.90;70.40;24.50;96619.00;;;;5053695;28;20224;-83
2022/07/23 03:21:03;;;;;;;2.20;2.00;;;23.80;71.20;24.30;96607.00;;;;5053893;28;20291;-84
2022/07/23 03:23:32;;;;;;;2.23;2.03;;;23.70;71.60;24.30;96616.00;;;;5052941;28;20262;-84
2022/07/23 03:26:00;;;;;;;4.67;2.27;;;23.60;72.80;24.20;96607.00;;;;5052425;28;20597;-84
2022/07/23 03:28:27;;;;;;;4.30;2.37;;;23.50;72.20;24.10;96605.00;;;;5051159;28;20439;-84
2022/07/23 03:30:54;;;;;;;2.40;2.20;;;23.40;72.70;24.10;96609.00;;;;5052712;28;20201;-84
2022/07/23 03:33:30;;;;;;;3.23;2.37;;;23.50;73.00;24.00;96602.00;;;;5053457;28;20224;-84
2022/07/23 03:35:57;;;;;;;2.13;1.93;;;23.30;73.10;24.00;96593.00;;;;5053840;28;20204;-84
2022/07/23 03:38:24;;;;;;;2.83;2.60;;;23.30;73.80;24.00;96582.00;;;;5052508;28;20221;-83
2022/07/23 03:40:53;;;;;;;2.73;2.30;;;23.20;74.40;23.90;96578.00;;;;5051915;28;20208;-84
2022/07/23 03:43:20;;;;;;;2.50;2.30;;;23.20;74.80;23.90;96573.00;;;;5053449;28;20204;-84
2022/07/23 03:45:47;;;;;;;3.33;2.77;;;23.10;74.80;23.90;96579.00;;;;5053546;28;20212;-84
2022/07/23 03:48:20;;;;;;;4.50;2.80;;;23.10;75.20;23.90;96589.00;;;;5053542;28;20224;-84
2022/07/23 03:50:47;;;;;;;2.50;2.30;;;23.10;75.30;23.90;96587.00;;;;5053208;28;20638;-84
2022/07/23 03:53:14;;;;;;;2.53;2.30;;;23.10;75.80;23.90;96578.00;;;;5052686;28;20628;-84
2022/07/23 03:55:42;;;;;;;3.07;2.77;;;23.10;76.30;23.90;96567.00;;;;5053404;28;20228;-83
2022/07/23 03:58:10;;;;;;;3.70;2.83;;;23.10;76.60;23.90;96567.00;;;;5052487;28;20649;-83
2022/07/23 04:00:37;;;;;;;2.70;2.50;;;23.10;76.80;23.90;96568.00;;;;5051785;28;20228;-83
2022/07/23 04:03:05;;;;;;;3.50;3.10;;;23.10;76.70;24.00;96558.00;;;;5053209;28;20248;-83
2022/07/23 04:05:34;;;;;;;2.83;2.63;;;23.10;77.00;24.00;96577.00;;;;5053312;28;20292;-83
2022/07/23 04:08:07;;;;;;;3.37;2.80;;;23.20;77.20;24.00;96581.00;;;;5053004;28;20687;-83
2022/07/23 04:10:40;;;;;;;4.83;2.57;;;23.20;77.30;24.00;96568.00;;;;5053515;28;20243;-83
2022/07/23 04:13:07;;;;;;;3.03;2.73;;;23.20;77.30;24.00;96552.00;;;;5053527;28;20255;-84
2022/07/23 04:15:37;;;;;;;3.00;2.77;;;23.20;76.90;23.90;96567.00;;;;5053102;28;20197;-84
2022/07/23 04:18:08;;;;;;;2.80;2.60;;;23.20;76.90;23.90;96562.00;;;;5052090;28;20308;-83
2022/07/23 04:20:35;;;;;;;4.80;2.60;;;23.20;76.90;23.90;96563.00;;;;5051522;28;20220;-84
2022/07/23 04:23:06;;;;;;;3.20;2.40;;;23.20;76.70;23.90;96564.00;;;;5053036;28;20258;-84
2022/07/23 04:25:42;;;;;;;2.70;2.27;;;23.20;76.70;23.90;96573.00;;;;5052897;28;20645;-84
2022/07/23 04:28:09;;;;;;;2.57;2.37;;;23.20;76.90;23.90;96579.00;;;;5052873;28;20232;-84
2022/07/23 04:30:38;;;;;;;2.07;1.97;;;23.20;76.80;23.90;96580.00;;;;5052889;28;20200;-84
2022/07/23 04:33:08;;;;;;;2.57;2.37;;;23.20;76.70;23.90;96580.00;;;;5052743;28;20196;-84
2022/07/23 04:35:36;;;;;;;2.97;2.27;;;23.20;76.50;23.90;96574.00;;;;5050996;28;20213;-83
2022/07/23 04:38:05;;;;;;;2.30;2.17;;;23.20;76.60;23.90;96579.00;;;;5052447;28;20259;-84
2022/07/23 04:40:32;;;;;;;4.40;2.10;;;23.10;76.50;23.90;96571.00;;;;5050918;28;20270;-84
2022/07/23 04:43:02;;;;;;;2.37;2.17;;;23.10;76.50;23.90;96570.00;;;;5051769;28;20724;-84
2022/07/23 04:45:31;;;;;;;2.40;2.30;;;23.20;76.90;23.90;96566.00;;;;5052516;28;20197;-84
2022/07/23 04:48:01;;;;;;;2.47;2.27;;;23.10;76.80;24.00;96561.00;;;;5052516;28;20240;-85
2022/07/23 04:50:31;;;;;;;2.83;2.40;;;23.20;77.00;24.00;96566.00;;;;5052450;28;20204;-84
2022/07/23 04:52:58;;;;;;;2.30;2.20;;;23.20;77.00;24.00;96574.00;;;;5051242;28;20204;-84
2022/07/23 04:55:26;;;;;;;2.30;2.20;;;23.20;76.90;24.00;96578.00;;;;5051782;28;20279;-84
2022/07/23 04:57:53;;;;;;;2.53;2.20;;;23.20;77.00;24.00;96576.00;;;;5052193;28;20217;-84
2022/07/23 05:00:20;;;;;;;2.50;2.20;;;23.20;76.80;24.10;96578.00;;;;5052059;28;20252;-84
2022/07/23 05:02:48;;;;;;;2.83;2.47;;;23.20;76.60;24.10;96568.00;;;;5052133;28;20243;-84
2022/07/23 05:05:19;;;;;;;2.23;2.03;;;23.30;76.80;24.10;96565.00;;;;5052313;28;20206;-84
2022/07/23 05:07:46;;;;;;;3.10;2.80;;;23.30;77.10;24.10;96557.00;;;;5052324;28;20228;-84
2022/07/23 05:10:20;;;;;;;2.10;1.90;;;23.30;76.90;24.10;96559.00;;;;5051646;28;20205;-84
2022/07/23 05:12:47;;;;;;;2.70;2.50;;;23.30;77.10;24.20;96553.00;;;;5051030;28;20197;-84
2022/07/23 05:15:17;;;;;;;2.97;2.33;;;23.30;77.00;24.20;96548.00;;;;5052194;28;20241;-84
2022/07/23 05:17:44;;;;;;;2.97;2.67;;;23.40;77.10;24.20;96547.00;;;;5052235;28;20263;-83
2022/07/23 05:20:13;;;;;;;2.57;2.37;;;23.40;76.90;24.20;96544.00;;;;5052141;28;20252;-84
2022/07/23 05:22:42;;;;;;;4.47;2.90;;;23.40;76.80;24.30;96547.00;;;;5052405;28;20205;-84
2022/07/23 05:25:09;;;;;;;2.50;2.30;;;23.40;77.00;24.30;96546.00;;;;5051972;28;20204;-84
2022/07/23 05:27:40;;;;;;;2.37;2.27;;;23.40;77.00;24.30;96556.00;;;;5052122;28;20750;-84
2022/07/23 05:30:09;;;;;;;2.53;2.33;;;23.40;76.90;24.30;96562.00;;;;5050461;28;20212;-84
2022/07/23 05:32:39;;;;;;;2.73;2.40;;;23.50;76.90;24.30;96562.00;;;;5051158;28;20601;-84
2022/07/23 05:35:08;;;;;;;2.37;2.27;;;23.50;77.00;24.40;96568.00;;;;5051728;28;20646;-84
2022/07/23 05:37:36;;;;;;;2.37;2.17;;;23.50;77.00;24.40;96559.00;;;;5051785;28;20716;-84
2022/07/23 05:40:14;;;;;;;6.47;2.50;;;23.50;76.90;24.40;96565.00;;;;5051971;28;20354;-84
2022/07/23 05:42:42;;;;;;;2.60;2.40;;;23.50;77.00;24.40;96571.00;;;;5051977;28;20184;-84
2022/07/23 05:45:11;;;;;;;2.80;2.60;;;23.60;77.00;24.40;96576.00;;;;5051396;28;20204;-83
2022/07/23 05:47:46;;;;;;;3.03;2.83;;;23.60;77.20;24.50;96592.00;;;;5051804;28;20221;-84
2022/07/23 05:50:14;;;;;;;2.53;2.33;;;23.60;77.80;24.50;96580.00;;;;5051890;28;20235;-85
2022/07/23 05:52:44;;;;;;;3.33;3.13;;;23.60;77.50;24.50;96588.00;;;;5050940;28;20204;-85
2022/07/23 05:55:13;;;;;;;2.73;2.53;;;23.70;77.60;24.60;96587.00;;;;5050659;28;20196;-85
2022/07/23 05:57:40;;;;;;;2.40;2.30;;;23.70;77.40;24.60;96589.00;;;;5067371;28;20251;-85
2022/07/23 06:00:11;;;;;;;2.67;2.47;;;23.70;77.40;24.60;96587.00;;;;5050936;28;20596;-85
2022/07/23 06:02:39;;;;;;;2.60;2.40;;;23.70;77.50;24.70;96588.00;;;;5050581;28;20201;-85
2022/07/23 06:05:08;;;;;;;2.87;2.67;;;23.80;77.60;24.70;96590.00;;;;5048691;28;20195;-86
2022/07/23 06:07:36;;;;;;;2.53;2.33;;;23.80;77.60;24.70;96602.00;;;;5060445;28;20228;-86
2022/07/23 06:10:05;;;;;;;2.90;2.70;;;23.80;77.50;24.80;96606.00;;;;5070896;28;20208;-86
2022/07/23 06:12:34;;;;;;;5.47;2.67;;;23.90;77.60;24.80;96594.00;;;;5071126;28;20285;-87
2022/07/23 06:15:01;;;;;;;3.17;2.97;;;23.90;77.50;24.90;96602.00;;;;5064622;28;20271;-87
2022/07/23 06:17:29;;;;;;;3.40;3.17;;;23.90;77.30;24.90;96607.00;;;;5064949;28;20391;-84
2022/07/23 06:19:57;;;;;;;2.97;2.77;;;24.00;77.30;24.90;96605.00;;;;5063647;28;20310;-85
2022/07/23 06:22:24;;;;;;;3.10;2.90;;;24.00;77.40;25.00;96586.00;;;;5063049;28;20623;-85
2022/07/23 06:24:51;;;;;;;3.23;2.93;;;24.00;77.20;25.00;96588.00;;;;5053868;28;20649;-86
2022/07/23 06:27:19;;;;;;;3.50;3.10;;;24.10;77.00;25.00;96579.00;;;;5070797;28;20200;-86
2022/07/23 06:29:47;;;;;;;3.10;2.90;;;24.10;76.90;25.10;96576.00;;;;5068407;28;20202;-86
2022/07/23 06:32:15;;;;;;;3.10;2.90;;;24.10;76.90;25.10;96566.00;;;;5050834;28;20195;-85
2022/07/23 06:34:42;;;;;;;3.60;3.00;;;24.20;77.00;25.10;96564.00;;;;5050836;28;20205;-86
2022/07/23 06:37:10;;;;;;;3.03;2.73;;;24.20;77.00;25.10;96562.00;;;;5050606;28;20202;-85
2022/07/23 06:39:37;;;;;;;3.20;3.00;;;24.20;77.00;25.10;96559.00;;;;5049694;28;20220;-86
2022/07/23 06:42:05;;;;;;;2.80;2.60;;;24.20;76.60;25.10;96570.00;;;;5055321;28;20198;-86
2022/07/23 06:44:32;;;;;;;4.90;2.80;;;24.20;76.40;25.10;96560.00;;;;5072650;28;20210;-86
2022/07/23 06:47:01;;;;;;;3.17;2.97;;;24.20;76.10;25.20;96559.00;;;;5074502;28;20194;-84
2022/07/23 06:49:28;;;;;;;2.87;2.67;;;24.20;76.20;25.20;96564.00;;;;5073710;28;20513;-86
2022/07/23 06:51:55;;;;;;;3.50;3.20;;;24.30;75.80;25.20;96567.00;;;;5074136;28;20195;-85
2022/07/23 06:54:22;;;;;;;3.10;2.90;;;24.30;75.80;25.20;96579.00;;;;5074524;28;20196;-85
2022/07/23 06:56:50;;;;;;;3.07;2.87;;;24.30;76.20;25.30;96589.00;;;;5074175;28;20255;-85
2022/07/23 06:59:17;;;;;;;2.63;2.37;;;24.30;76.10;25.30;96587.00;;;;5072935;28;20966;-85
2022/07/23 07:01:44;;;;;;;3.33;3.13;;;24.40;76.10;25.30;96583.00;;;;5063748;28;20219;-85
2022/07/23 07:04:13;;;;;;;3.13;2.93;;;24.40;76.20;25.40;96587.00;;;;5073472;28;20195;-86
2022/07/23 07:06:40;;;;;;;3.10;2.90;;;24.40;76.40;25.40;96596.00;;;;5068973;28;20208;-85
2022/07/23 07:09:08;;;;;;;3.20;3.00;;;24.40;76.40;25.50;96628.00;;;;5054085;28;20284;-86
2022/07/23 07:11:35;;;;;;;3.03;2.73;;;24.50;76.70;25.50;96659.00;;;;5061567;28;20616;-85
2022/07/23 07:14:04;;;;;;;2.87;2.67;;;24.50;76.80;25.60;96668.00;;;;5053794;28;20692;-85
2022/07/23 07:16:31;;;;;;;3.03;2.83;;;24.60;76.60;25.60;96671.00;;;;5052593;28;20227;-86
2022/07/23 07:18:58;;;;;;;3.07;2.87;;;24.60;76.30;25.60;96652.00;;;;5052472;28;20211;-85
2022/07/23 07:21:27;;;;;;;3.40;3.10;;;24.60;75.90;25.60;96652.00;;;;5052935;28;20270;-86
2022/07/23 07:23:54;;;;;;;3.07;2.87;;;24.70;75.50;25.70;96642.00;;;;5064510;28;20207;-86
2022/07/23 07:26:21;;;;;;;2.60;2.50;;;24.70;75.50;25.70;96635.00;;;;5054443;28;20203;-86
2022/07/23 07:28:49;;;;;;;2.93;2.73;;;24.70;75.70;25.80;96634.00;;;;5053069;28;20230;-85
2022/07/23 07:31:16;;;;;;;5.23;3.20;;;24.80;75.80;25.80;96645.00;;;;5061490;28;20211;-85
2022/07/23 07:33:44;;;;;;;3.07;2.87;;;24.80;75.70;25.90;96634.00;;;;5052119;28;20206;-85
2022/07/23 07:36:11;;;;;;;3.37;3.07;;;24.90;75.40;25.90;96652.00;;;;5067395;28;20249;-86
2022/07/23 07:38:40;;;;;;;3.03;2.83;;;24.90;75.30;26.00;96651.00;;;;5055244;28;20629;-85
2022/07/23 07:41:09;;;;;;;3.47;3.17;;;24.90;74.90;26.00;96631.00;;;;5046753;28;20226;-87
2022/07/23 07:43:37;;;;;;;4.03;3.27;;;25.00;74.70;26.00;96632.00;;;;5061402;28;20203;-86
2022/07/23 07:46:05;;;;;;;3.23;3.03;;;25.00;74.80;26.00;96635.00;;;;5042409;28;20222;-85
2022/07/23 07:48:32;;;;;;;3.63;3.33;;;25.00;74.90;26.10;96638.00;;;;5033057;28;20224;-86
2022/07/23 07:51:00;;;;;;;3.60;3.30;;;25.00;75.00;26.10;96648.00;;;;5048383;28;20224;-86
2022/07/23 07:53:27;;;;;;;3.30;3.10;;;25.10;74.70;26.10;96656.00;;;;5057154;28;20344;-86
2022/07/23 07:55:56;;;;;;;3.70;3.27;;;25.10;74.80;26.20;96664.00;;;;5048471;28;20776;-86
2022/07/23 07:58:23;;;;;;;3.77;3.47;;;25.20;75.00;26.20;96667.00;;;;5052571;28;20231;-86
2022/07/23 08:00:51;;;;;;;3.60;3.30;;;25.20;75.00;26.20;96666.00;;;;5049551;28;20306;-86
2022/07/23 08:03:18;;;;;;;3.80;3.60;;;25.20;74.80;26.20;96658.00;;;;5061974;28;20191;-86
2022/07/23 08:05:45;;;;;;;3.70;3.50;;;25.20;74.70;26.20;96660.00;;;;5065047;28;20221;-87
2022/07/23 08:08:14;;;;;;;3.43;3.20;;;25.20;74.50;26.10;96665.00;;;;5052675;28;20263;-86
2022/07/23 08:10:43;;;;;;;3.53;3.23;;;25.20;74.40;26.10;96667.00;;;;5049733;28;20635;-87
2022/07/23 08:13:15;;;;;;;3.57;3.27;;;25.20;74.50;26.10;96667.00;;;;5053431;28;20231;-86
2022/07/23 08:15:43;;;;;;;3.70;3.50;;;25.20;74.70;26.10;96674.00;;;;5044740;28;20209;-86
2022/07/23 08:18:11;;;;;;;4.00;3.60;;;25.20;74.90;26.10;96677.00;;;;5032721;28;20216;-86
2022/07/23 08:20:38;;;;;;;3.60;3.33;;;25.20;75.00;26.10;96690.00;;;;5042124;28;20251;-86
2022/07/23 08:23:08;;;;;;;9.00;3.87;;;25.20;75.00;26.00;96686.00;;;;5050776;28;20237;-86
2022/07/23 08:25:38;;;;;;;3.83;3.63;;;25.20;74.90;26.00;96696.00;;;;5038157;28;20228;-86
2022/07/23 08:28:09;;;;;;;3.97;3.67;;;25.10;75.10;26.00;96703.00;;;;5032092;28;20222;-86
2022/07/23 08:30:39;;;;;;;3.83;3.53;;;25.10;75.10;26.00;96709.00;;;;5040986;28;20198;-86
2022/07/23 08:33:11;;;;;;;4.20;3.73;;;25.10;75.20;26.00;96706.00;;;;5049769;28;20197;-86
2022/07/23 08:35:40;;;;;;;3.77;3.23;;;25.10;75.20;26.00;96692.00;;;;5051850;28;20341;-86
2022/07/23 08:38:11;;;;;;;4.47;3.73;;;25.10;75.20;25.90;96696.00;;;;5052239;28;20270;-86
2022/07/23 08:40:41;;;;;;;3.90;3.60;;;25.10;75.00;25.90;96685.00;;;;5048931;28;20225;-86
2022/07/23 08:43:12;;;;;;;4.00;3.70;;;25.10;75.40;25.90;96694.00;;;;5050727;28;20194;-87
2022/07/23 08:45:44;;;;;;;3.80;3.50;;;25.10;75.10;25.90;96687.00;;;;5043731;28;20204;-88
2022/07/23 08:48:14;;;;;;;4.00;3.43;;;25.10;75.00;25.90;96695.00;;;;5054755;28;20227;-86
2022/07/23 08:50:45;;;;;;;3.70;3.40;;;25.00;75.00;25.90;96694.00;;;;5060991;28;20203;-86
2022/07/23 08:53:13;;;;;;;4.50;4.20;;;25.00;75.20;26.00;96697.00;;;;5071806;28;20260;-86
2022/07/23 08:55:40;;;;;;;4.40;4.00;;;25.00;75.10;26.00;96699.00;;;;5057628;28;20695;-86
2022/07/23 08:58:08;;;;;;;3.63;3.43;;;25.00;75.20;26.00;96704.00;;;;5051117;28;20223;-86
2022/07/23 09:00:35;;;;;;;4.57;4.07;;;25.00;75.30;26.00;96725.00;;;;5039747;28;20255;-87
2022/07/23 09:03:04;;;;;;;3.40;3.20;;;25.00;75.00;25.90;96728.00;;;;5050883;28;20197;-86
2022/07/23 09:05:31;;;;;;;4.20;3.83;;;25.00;74.60;25.90;96717.00;;;;5050410;28;20250;-86
2022/07/23 09:08:08;;;;;;;3.60;3.30;;;25.00;74.30;25.90;96718.00;;;;5079706;22;20250;-83
2022/07/23 09:11:01;;;;;;;3.63;3.33;;;25.00;74.50;25.80;96710.00;;;;5073839;28;20202;-83
2022/07/23 09:13:36;;;;;;;4.30;4.00;;;25.00;74.50;25.90;96707.00;;;;5059634;28;20682;-83
2022/07/23 09:16:08;;;;;;;4.77;4.27;;;25.00;74.80;25.90;96720.00;;;;5075354;28;20175;-83
2022/07/23 09:18:43;;;;;;;4.17;3.87;;;25.00;75.60;26.00;96741.00;;;;5073800;28;20698;-83
2022/07/23 09:21:20;;;;;;;4.73;3.70;;;25.00;76.10;26.10;96734.00;;;;5074213;28;20205;-83
2022/07/23 09:23:52;;;;;;;3.77;3.50;;;25.00;76.40;26.30;96716.00;;;;5074438;28;20288;-83
2022/07/23 09:26:39;;;;;;;3.90;3.60;;;25.10;76.40;26.60;96735.00;;;;5074629;28;20275;-83
2022/07/23 09:29:13;;;;;;;3.77;3.47;;;25.30;77.10;26.90;96721.00;;;;5075681;28;20259;-84
2022/07/23 09:31:48;;;;;;;4.93;3.57;;;25.40;77.60;27.20;96725.00;;;;5074474;28;20230;-83
2022/07/23 09:34:24;;;;;;;4.00;3.60;;;25.60;78.30;27.40;96742.00;;;;5077058;28;20215;-84
2022/07/23 09:36:54;;;;;;;4.83;3.93;;;25.80;77.70;27.70;96751.00;;;;5096327;28;20203;-83
2022/07/23 09:39:33;;;;;;;4.17;3.87;;;26.00;77.40;28.00;96745.00;;;;5095699;28;20776;-82
2022/07/23 09:42:15;;;;;;;3.80;3.50;;;26.20;77.60;28.30;96739.00;;;;5083893;28;20200;-83
2022/07/23 09:44:44;;;;;;;4.10;3.80;;;26.50;77.30;28.50;96742.00;;;;5076903;28;20180;-82
2022/07/23 09:47:12;;;;;;;4.10;3.70;;;26.70;76.10;28.60;96739.00;;;;5077062;28;20212;-83
2022/07/23 09:49:59;;;;;;;4.07;3.63;;;26.80;74.50;28.70;96724.00;;;;5075630;28;20223;-83
2022/07/23 09:52:28;;;;;;;3.60;3.40;;;27.00;74.20;28.70;96740.00;;;;5076922;28;20265;-82
2022/07/23 09:55:00;;;;;;;3.50;3.30;;;27.10;73.60;28.70;96732.00;;;;5068857;28;20283;-83
2022/07/23 09:57:29;;;;;;;3.80;3.50;;;27.30;73.20;28.80;96742.00;;;;5055041;28;20228;-83
2022/07/23 10:00:01;;;;;;;4.13;3.73;;;27.40;73.10;28.90;96748.00;;;;5060921;28;20196;-83
2022/07/23 10:02:31;;;;;;;3.60;3.30;;;27.50;73.60;29.20;96747.00;;;;5075182;28;20212;-83
2022/07/23 10:05:05;;;;;;;3.93;3.50;;;27.60;73.90;29.50;96759.00;;;;5075946;28;20661;-83
2022/07/23 10:07:38;;;;;;;3.80;3.60;;;27.80;74.30;29.80;96748.00;;;;5076191;28;20280;-83
2022/07/23 10:10:07;;;;;;;3.70;3.40;;;28.00;73.20;30.10;96736.00;;;;5075948;28;20208;-83
2022/07/23 10:12:47;;;;;;;3.33;3.10;;;28.30;73.10;30.40;96748.00;;;;5076646;28;20200;-83
2022/07/23 10:15:14;;;;;;;3.30;3.10;;;28.60;72.80;30.60;96747.00;;;;5074370;28;20208;-84
2022/07/23 10:17:42;;;;;;;4.05;3.15;;;28.80;72.50;30.90;96749.00;;;;5077671;28;20246;-83
2022/07/23 10:20:11;;;;;;;3.60;3.40;;;29.10;71.00;31.00;96747.00;;;;5067842;28;20219;-83
2022/07/23 10:22:48;;;;;;;3.63;2.85;;;29.40;71.00;31.20;96747.00;;;;5057767;28;20220;-82
2022/07/23 10:25:26;;;;;;;3.63;3.42;;;29.60;70.90;31.50;96745.00;;;;5057856;28;20605;-84
2022/07/23 10:28:20;;;;;;;3.30;3.10;;;29.90;68.80;31.70;96753.00;;;;5057959;28;20251;-84
2022/07/23 10:31:06;;;;;;;3.83;3.38;;;30.10;67.60;31.80;96730.00;;;;5058824;28;20214;-84
2022/07/23 10:33:52;;;;;;;3.40;3.00;;;30.40;67.00;32.00;96734.00;;;;5056182;28;20662;-84
2022/07/23 10:36:30;;;;;;;3.13;2.78;;;30.60;65.60;32.20;96724.00;;;;5056049;28;20243;-84
2022/07/23 10:39:09;;;;;;;3.05;2.75;;;30.80;65.90;32.40;96732.00;;;;5056331;28;20258;-84
2022/07/23 10:41:40;;;;;;;3.22;2.92;;;31.10;65.00;32.60;96731.00;;;;5056681;28;20727;-84
2022/07/23 10:44:09;;;;;;;3.47;3.17;;;31.30;64.50;32.70;96725.00;;;;5058362;28;20607;-84
2022/07/23 10:46:44;;;;;;;3.20;2.90;;;31.50;63.20;32.90;96724.00;;;;5058741;28;20653;-84
2022/07/23 10:49:28;;;;;;;3.35;3.05;;;31.70;63.30;33.00;96713.00;;;;5060156;28;20274;-84
2022/07/23 10:52:26;;;;;;;3.30;3.10;;;31.80;61.00;33.00;96707.00;;;;5059110;28;20201;-84
2022/07/23 10:54:57;;;;;;;3.03;2.83;;;32.00;59.90;33.10;96702.00;;;;5058477;28;20718;-84
2022/07/23 10:57:26;;;;;;;3.05;2.85;;;32.10;59.90;33.10;96701.00;;;;5059155;28;20635;-82
2022/07/23 11:00:18;;;;;;;3.20;2.85;;;32.20;60.40;33.10;96699.00;;;;5059544;28;20649;-83
2022/07/23 11:02:47;;;;;;;3.00;2.80;;;32.30;57.90;33.10;96705.00;;;;5058733;28;20746;-83
2022/07/23 11:05:17;;;;;;;3.20;2.95;;;32.30;58.80;33.10;96698.00;;;;5058683;28;20671;-83